OTBH/IUD METAR and TAF weather

Enter ICAO airport designator
Station Type Date Time Source
OTBH METAR 2020/07/12 03:56 UTC NOAA

OTBH 120356Z AUTO 06005KT 9999 CLR 36/20 A2938 RMK AO2 SLP949 T03580204 $


Station Type Date Time Source
OTBH Decoded METAR 2020/07/12 03:56 UTC NOAA

Station name not available
Jul 11, 2020 - 11:56 PM EDT / 2020.07.12 0356 UTC
Wind: from the ENE (060 degrees) at 6 MPH (5 KT):0
Visibility: greater than 7 mile(s):0
Sky conditions: clear
Temperature: 96.4 F (35.8 C)
Heat index: 101.7 F (38.7 C):1
Dew Point: 68.7 F (20.4 C)
Relative Humidity: 40%
Pressure (altimeter): 29.38 in. Hg (994 hPa)
ob: OTBH 120356Z AUTO 06005KT 9999 CLR 36/20 A2938 RMK AO2 SLP949 T03580204
cycle: 4

Station Type Date Time Source
OTBH TAF 2020/07/11 16:57 UTC NOAA

TAF TAF OTBH 111553Z 1116/1222 06007KT 9999 SKC QNH2934INS
BECMG 1200/1201 VRB06KT 9999 FEW150 QNH2934INS
BECMG 1204/1205 08009KT 9999 SCT150 QNH2933INS
TEMPO 1206/1212 13012G18KT
BECMG 1214/1215 04009KT 9999 BKN150 QNH2933INS TX47/1211Z TN30/1202Z

Example: see airport list